createdAt,value
2018-09-06T00:02:20.666Z,11.65
2018-09-06T00:04:48.900Z,15.53
2018-09-06T00:07:17.070Z,14.98
2018-09-06T00:09:45.236Z,12.58
2018-09-06T00:12:13.446Z,13.58
2018-09-06T00:14:41.603Z,15.83
2018-09-06T00:17:09.796Z,15.03
2018-09-06T00:19:37.970Z,17.25
2018-09-06T00:22:06.187Z,14.93
2018-09-06T00:24:34.373Z,13.95
2018-09-06T00:27:02.543Z,14.35
2018-09-06T00:29:30.711Z,16.30
2018-09-06T00:31:58.910Z,15.38
2018-09-06T00:34:27.099Z,11.90
2018-09-06T00:36:55.286Z,14.13
2018-09-06T00:39:23.491Z,13.30
2018-09-06T00:41:51.663Z,16.93
2018-09-06T00:44:19.839Z,13.78
2018-09-06T00:46:48.051Z,17.75
2018-09-06T00:49:16.214Z,17.57
2018-09-06T00:54:25.098Z,16.57
2018-09-06T00:56:53.270Z,12.58
2018-09-06T00:59:25.057Z,12.33
2018-09-06T01:01:54.106Z,11.00
2018-09-06T01:04:22.234Z,13.10
2018-09-06T01:06:50.429Z,14.45
2018-09-06T01:09:18.626Z,12.23
2018-09-06T01:11:47.010Z,12.15
2018-09-06T01:14:15.189Z,12.90
2018-09-06T01:16:43.377Z,15.43
2018-09-06T01:19:11.565Z,16.27
2018-09-06T01:21:39.758Z,13.62
2018-09-06T01:24:07.959Z,17.92
2018-09-06T01:26:36.093Z,13.38
2018-09-06T01:29:04.191Z,14.35
2018-09-06T01:31:32.374Z,19.52
2018-09-06T01:34:00.619Z,12.70
2018-09-06T01:36:34.217Z,11.35
2018-09-06T01:39:02.362Z,12.75
2018-09-06T01:41:30.556Z,13.35
2018-09-06T01:43:58.738Z,18.60
2018-09-06T01:46:26.941Z,14.50
2018-09-06T01:48:55.130Z,12.23
2018-09-06T01:51:23.302Z,11.85
2018-09-06T01:53:51.502Z,11.22
2018-09-06T01:56:19.898Z,12.10
2018-09-06T01:58:48.089Z,12.18
2018-09-06T02:01:16.595Z,15.55
2018-09-06T02:03:44.981Z,11.35
2018-09-06T02:06:13.165Z,15.98
2018-09-06T02:08:41.369Z,15.18
2018-09-06T02:11:09.538Z,14.95
2018-09-06T02:13:37.937Z,15.85
2018-09-06T02:16:06.245Z,13.58
2018-09-06T02:18:34.414Z,15.38
2018-09-06T02:21:02.793Z,11.20
2018-09-06T02:23:31.474Z,12.23
2018-09-06T02:25:59.559Z,15.83
2018-09-06T02:28:27.757Z,16.37
2018-09-06T02:30:55.931Z,13.85
2018-09-06T02:33:24.154Z,17.40
2018-09-06T02:35:52.334Z,12.25
2018-09-06T02:38:20.507Z,15.30
2018-09-06T02:40:48.674Z,13.35
2018-09-06T02:43:17.137Z,12.95
2018-09-06T02:45:45.389Z,16.50
2018-09-06T02:48:13.556Z,14.03
2018-09-06T02:50:47.331Z,12.70
2018-09-06T02:53:15.460Z,11.38
2018-09-06T02:55:43.851Z,13.35
2018-09-06T02:58:12.046Z,14.23
2018-09-06T03:00:40.217Z,15.75
2018-09-06T03:03:08.418Z,16.75
2018-09-06T03:05:36.587Z,14.95
2018-09-06T03:08:04.785Z,15.38
2018-09-06T03:10:40.157Z,14.45
2018-09-06T03:13:08.338Z,14.15
2018-09-06T03:15:36.550Z,14.68
2018-09-06T03:18:04.706Z,14.93
2018-09-06T03:20:32.882Z,12.35
2018-09-06T03:23:01.518Z,14.65
2018-09-06T03:25:29.674Z,13.83
2018-09-06T03:27:57.861Z,14.03
2018-09-06T03:30:26.054Z,13.43
2018-09-06T03:32:54.277Z,14.73
2018-09-06T03:35:22.435Z,12.45
2018-09-06T03:37:50.606Z,14.13
2018-09-06T03:40:18.794Z,12.10
2018-09-06T03:42:46.974Z,17.90
2018-09-06T03:45:15.165Z,12.63
2018-09-06T03:47:43.354Z,13.22
2018-09-06T03:50:11.559Z,18.05
2018-09-06T03:52:39.750Z,15.48
2018-09-06T03:55:07.984Z,21.80
2018-09-06T03:57:36.102Z,13.48
2018-09-06T04:00:04.422Z,13.60
2018-09-06T04:02:32.807Z,13.53
2018-09-06T04:05:01.093Z,17.87
2018-09-06T04:07:29.270Z,18.12
2018-09-06T04:09:57.574Z,16.42
2018-09-06T04:12:25.930Z,17.80
2018-09-06T04:14:54.146Z,15.93
2018-09-06T04:17:22.312Z,11.83
2018-09-06T04:19:50.550Z,14.63
2018-09-06T04:22:18.674Z,14.23
2018-09-06T04:24:46.885Z,14.58
2018-09-06T04:27:15.066Z,17.27
2018-09-06T04:29:43.271Z,15.98
2018-09-06T04:32:11.441Z,16.65
2018-09-06T04:34:39.642Z,14.90
2018-09-06T04:37:07.814Z,15.60
2018-09-06T04:39:36.001Z,18.25
2018-09-06T04:42:04.190Z,16.82
2018-09-06T04:44:32.409Z,13.20
2018-09-06T04:47:00.567Z,13.70
2018-09-06T04:49:28.777Z,15.70
2018-09-06T04:51:56.945Z,13.20
2018-09-06T04:54:25.125Z,18.82
2018-09-06T04:56:53.312Z,13.32
2018-09-06T04:59:21.510Z,16.27
2018-09-06T05:01:49.702Z,14.18
2018-09-06T05:04:17.899Z,14.45
2018-09-06T05:06:45.970Z,22.70
2018-09-06T05:09:14.155Z,12.30
2018-09-06T05:11:42.334Z,13.80
2018-09-06T05:14:10.550Z,12.43
2018-09-06T05:16:38.911Z,16.00
2018-09-06T05:19:07.135Z,17.05
2018-09-06T05:21:35.298Z,16.93
2018-09-06T05:24:03.678Z,15.00
2018-09-06T05:26:31.867Z,14.23
2018-09-06T05:29:00.048Z,19.40
2018-09-06T05:31:28.234Z,14.10
2018-09-06T05:33:56.405Z,20.00
2018-09-06T05:36:24.610Z,16.50
2018-09-06T05:38:52.777Z,20.52
2018-09-06T05:41:20.982Z,17.85
2018-09-06T05:43:49.162Z,15.35
2018-09-06T05:46:17.351Z,16.97
2018-09-06T05:48:45.548Z,18.50
2018-09-06T05:51:14.645Z,21.17
2018-09-06T05:53:42.817Z,18.62
2018-09-06T05:56:11.024Z,22.50
2018-09-06T05:58:39.201Z,18.45
2018-09-06T06:01:08.314Z,18.73
2018-09-06T06:03:36.489Z,17.65
2018-09-06T06:06:04.694Z,17.07
2018-09-06T06:08:43.901Z,16.73
2018-09-06T06:11:13.062Z,17.35
2018-09-06T06:13:41.283Z,17.73
2018-09-06T06:16:09.876Z,15.30
2018-09-06T06:18:37.902Z,17.95
2018-09-06T06:21:06.233Z,16.27
2018-09-06T06:23:34.454Z,18.40
2018-09-06T06:26:02.659Z,16.80
2018-09-06T06:28:30.869Z,19.40
2018-09-06T06:30:59.058Z,15.40
2018-09-06T06:33:27.558Z,16.57
2018-09-06T06:35:55.763Z,22.17
2018-09-06T06:38:23.928Z,19.92
2018-09-06T06:40:52.123Z,16.40
2018-09-06T06:43:20.306Z,17.50
2018-09-06T06:45:48.497Z,21.20
2018-09-06T06:48:16.665Z,21.10
2018-09-06T06:50:44.877Z,17.85
2018-09-06T06:53:13.043Z,19.48
2018-09-06T06:55:41.562Z,22.00
2018-09-06T06:58:09.721Z,18.90
2018-09-06T07:00:40.389Z,23.18
2018-09-06T07:03:09.693Z,17.25
2018-09-06T07:05:38.197Z,20.88
2018-09-06T07:08:06.938Z,20.08
2018-09-06T07:10:35.086Z,17.40
2018-09-06T07:13:03.224Z,21.77
2018-09-06T07:15:31.354Z,17.27
2018-09-06T07:17:59.534Z,22.87
2018-09-06T07:20:27.723Z,16.48
2018-09-06T07:22:56.097Z,26.33
2018-09-06T07:25:24.290Z,23.62
2018-09-06T07:27:52.458Z,18.07
2018-09-06T07:30:20.721Z,21.73
2018-09-06T07:32:48.833Z,23.47
2018-09-06T07:35:17.066Z,22.17
2018-09-06T07:37:45.231Z,29.67
2018-09-06T07:40:13.399Z,26.33
2018-09-06T07:42:41.625Z,25.82
2018-09-06T07:45:09.766Z,21.48
2018-09-06T07:47:37.973Z,25.65
2018-09-06T07:50:06.191Z,20.23
2018-09-06T07:52:34.363Z,21.25
2018-09-06T07:55:02.574Z,21.17
2018-09-06T07:57:31.141Z,22.00
2018-09-06T07:59:59.305Z,21.07
2018-09-06T08:02:27.502Z,22.93
2018-09-06T08:04:55.910Z,26.73
2018-09-06T08:07:24.197Z,25.45
2018-09-06T08:09:52.358Z,25.00
2018-09-06T08:12:20.550Z,22.50
2018-09-06T08:14:49.762Z,24.82
2018-09-06T08:17:17.949Z,22.27
2018-09-06T08:19:46.130Z,22.73
2018-09-06T08:22:14.318Z,22.45
2018-09-06T08:24:42.502Z,22.22
2018-09-06T08:27:10.714Z,23.65
2018-09-06T08:29:38.894Z,23.10
2018-09-06T08:32:07.070Z,19.85
2018-09-06T08:34:35.242Z,19.48
2018-09-06T08:37:03.457Z,22.10
2018-09-06T08:39:31.645Z,26.17
2018-09-06T08:41:59.809Z,21.15
2018-09-06T08:44:28.001Z,18.20
2018-09-06T08:46:56.302Z,19.50
2018-09-06T08:49:24.902Z,26.80
2018-09-06T08:51:53.021Z,23.70
2018-09-06T08:54:22.186Z,19.30
2018-09-06T08:56:50.370Z,22.62
2018-09-06T08:59:18.554Z,20.00
2018-09-06T09:01:46.789Z,25.80
2018-09-06T09:04:14.931Z,24.43
2018-09-06T09:06:43.115Z,22.07
2018-09-06T09:09:13.061Z,28.00
2018-09-06T09:11:41.238Z,24.32
2018-09-06T09:14:09.837Z,22.40
2018-09-06T09:16:38.070Z,21.87
2018-09-06T09:19:06.582Z,23.57
2018-09-06T09:21:34.936Z,19.55
2018-09-06T09:24:04.229Z,19.42
2018-09-06T09:26:32.631Z,26.07
2018-09-06T09:29:00.914Z,21.57
2018-09-06T09:31:29.142Z,20.77
2018-09-06T09:33:57.282Z,21.02
2018-09-06T09:36:25.448Z,21.87
2018-09-06T09:38:53.765Z,26.93
2018-09-06T09:41:21.933Z,23.52
2018-09-06T09:43:50.117Z,19.98
2018-09-06T09:48:45.775Z,22.42
2018-09-06T09:51:13.970Z,19.70
2018-09-06T09:53:42.158Z,17.37
2018-09-06T09:56:10.334Z,17.15
2018-09-06T09:58:38.553Z,19.50
2018-09-06T10:01:06.718Z,23.42
2018-09-06T10:03:40.378Z,20.15
2018-09-06T10:06:13.939Z,19.98
2018-09-06T10:08:47.714Z,23.30
2018-09-06T10:11:16.895Z,20.40
2018-09-06T10:13:45.057Z,22.55
2018-09-06T10:16:13.243Z,20.68
2018-09-06T10:18:41.446Z,21.52
2018-09-06T10:21:10.637Z,18.23
2018-09-06T10:23:38.834Z,21.27
2018-09-06T10:26:07.018Z,25.43
2018-09-06T10:28:35.122Z,19.32
2018-09-06T10:31:04.321Z,19.80
2018-09-06T10:33:32.517Z,23.22
2018-09-06T10:36:00.698Z,23.22
2018-09-06T10:38:28.897Z,20.85
2018-09-06T10:40:58.086Z,35.28
2018-09-06T10:43:26.306Z,28.47
2018-09-06T10:45:54.474Z,20.72
2018-09-06T10:48:22.653Z,19.57
2018-09-06T10:50:50.844Z,21.12
2018-09-06T10:53:19.034Z,22.27
2018-09-06T10:55:47.210Z,26.40
2018-09-06T10:58:15.399Z,18.48
2018-09-06T11:00:43.637Z,18.45
2018-09-06T11:03:11.778Z,18.02
2018-09-06T11:05:39.969Z,19.27
2018-09-06T11:08:08.185Z,16.25
2018-09-06T11:10:36.250Z,16.07
2018-09-06T11:13:04.422Z,19.90
2018-09-06T11:15:32.621Z,12.70
2018-09-06T11:18:00.818Z,13.85
2018-09-06T11:20:28.970Z,16.12
2018-09-06T11:22:57.179Z,12.80
2018-09-06T11:25:25.334Z,10.58
2018-09-06T11:27:53.612Z,16.45
2018-09-06T11:30:21.700Z,9.18
2018-09-06T11:32:49.918Z,13.35
2018-09-06T11:35:18.085Z,11.33
2018-09-06T11:37:46.294Z,16.20
2018-09-06T11:40:14.602Z,16.95
2018-09-06T11:42:42.646Z,9.93
2018-09-06T11:45:10.834Z,10.23
2018-09-06T11:47:39.105Z,7.67
2018-09-06T11:50:07.213Z,8.50
2018-09-06T11:52:35.402Z,11.50
2018-09-06T11:55:03.604Z,10.58
2018-09-06T11:57:31.802Z,9.63
2018-09-06T11:59:59.958Z,8.68
2018-09-06T12:02:28.134Z,8.70
2018-09-06T12:04:56.332Z,8.08
2018-09-06T12:07:24.506Z,17.40
2018-09-06T12:09:52.704Z,10.23
2018-09-06T12:12:20.950Z,10.53
2018-09-06T12:14:49.078Z,7.75
2018-09-06T12:17:17.256Z,7.92
2018-09-06T12:19:45.482Z,8.18
2018-09-06T12:22:13.683Z,8.13
2018-09-06T12:24:42.254Z,12.30
2018-09-06T12:27:10.639Z,9.58
2018-09-06T12:29:38.824Z,9.18
2018-09-06T12:32:07.034Z,9.33
2018-09-06T12:34:35.216Z,8.43
2018-09-06T12:37:03.390Z,8.95
2018-09-06T12:39:31.570Z,9.50
2018-09-06T12:41:59.757Z,8.98
2018-09-06T12:44:27.957Z,8.70
2018-09-06T12:46:56.334Z,9.58
2018-09-06T12:49:24.505Z,9.18
2018-09-06T12:51:52.705Z,11.18
2018-09-06T12:54:20.902Z,11.33
2018-09-06T12:56:49.077Z,14.05
2018-09-06T12:59:17.278Z,10.38
2018-09-06T13:01:45.458Z,14.03
2018-09-06T13:04:13.650Z,14.35
2018-09-06T13:06:41.822Z,11.20
2018-09-06T13:09:10.009Z,12.23
2018-09-06T13:11:38.313Z,11.65
2018-09-06T13:14:06.522Z,11.68
2018-09-06T13:16:34.889Z,13.32
2018-09-06T13:19:03.465Z,15.75
2018-09-06T13:21:31.895Z,11.80
2018-09-06T13:24:00.098Z,13.65
2018-09-06T13:26:28.242Z,11.88
2018-09-06T13:28:56.460Z,13.70
2018-09-06T13:31:24.618Z,11.73
2018-09-06T13:33:52.797Z,15.90
2018-09-06T13:36:20.981Z,14.47
2018-09-06T13:38:49.186Z,16.95
2018-09-06T13:41:17.393Z,14.07
2018-09-06T13:43:45.564Z,14.53
2018-09-06T13:46:13.755Z,14.78
2018-09-06T13:48:41.926Z,16.85
2018-09-06T13:51:10.126Z,19.37
2018-09-06T13:53:38.291Z,14.50
2018-09-06T13:56:06.493Z,19.45
2018-09-06T13:58:34.666Z,14.95
2018-09-06T14:01:02.871Z,13.88
2018-09-06T14:03:31.030Z,9.73
2018-09-06T14:05:59.263Z,8.73
2018-09-06T14:08:27.542Z,11.43
2018-09-06T14:10:55.725Z,11.12
2018-09-06T14:13:24.010Z,17.60
2018-09-06T14:15:52.181Z,17.05
2018-09-06T14:18:20.361Z,15.10
2018-09-06T14:20:48.563Z,29.12
2018-09-06T14:23:16.757Z,27.40
2018-09-06T14:25:44.970Z,12.95
2018-09-06T14:28:13.130Z,15.28
2018-09-06T14:30:41.326Z,22.50
2018-09-06T14:33:09.519Z,18.23
2018-09-06T14:35:37.698Z,18.37
2018-09-06T14:38:05.871Z,21.33
2018-09-06T14:40:34.066Z,23.47
2018-09-06T14:43:02.366Z,22.80
2018-09-06T14:45:30.553Z,22.40
2018-09-06T14:47:58.737Z,22.00
2018-09-06T14:50:26.953Z,23.40
2018-09-06T14:52:55.094Z,19.30
2018-09-06T14:55:23.350Z,18.48
2018-09-06T14:57:51.474Z,19.57
2018-09-06T15:00:19.675Z,17.90
2018-09-06T15:02:47.846Z,18.23
2018-09-06T15:05:16.080Z,18.00
2018-09-06T15:07:44.217Z,20.23
2018-09-06T15:10:12.410Z,22.65
2018-09-06T15:12:40.595Z,17.37
2018-09-06T15:15:08.786Z,25.40
2018-09-06T15:17:36.893Z,19.55
2018-09-06T15:20:05.292Z,18.10
2018-09-06T15:22:33.346Z,19.87
2018-09-06T15:25:01.547Z,17.05
2018-09-06T15:27:29.717Z,19.67
2018-09-06T15:29:57.941Z,19.80
2018-09-06T15:32:26.086Z,23.52
2018-09-06T15:34:54.294Z,24.65
2018-09-06T15:37:22.506Z,24.10
2018-09-06T15:39:50.654Z,22.27
2018-09-06T15:42:18.833Z,26.68
2018-09-06T15:44:47.025Z,32.08
2018-09-06T15:47:15.214Z,27.58
2018-09-06T15:49:43.480Z,26.30
2018-09-06T15:52:11.601Z,23.92
2018-09-06T15:54:39.766Z,22.48
2018-09-06T15:57:07.966Z,26.17
2018-09-06T15:59:36.154Z,22.75
2018-09-06T16:02:04.347Z,28.47
2018-09-06T16:04:32.530Z,23.77
2018-09-06T16:07:00.798Z,26.70
2018-09-06T16:09:29.005Z,24.70
2018-09-06T16:11:57.192Z,28.10
2018-09-06T16:14:25.366Z,22.73
2018-09-06T16:16:53.485Z,24.10
2018-09-06T16:19:21.633Z,27.95
2018-09-06T16:21:49.748Z,20.90
2018-09-06T16:24:18.929Z,27.50
2018-09-06T16:26:47.129Z,24.80
2018-09-06T16:29:15.313Z,24.70
2018-09-06T16:31:43.519Z,25.10
2018-09-06T16:34:11.686Z,22.60
2018-09-06T16:36:39.801Z,25.05
2018-09-06T16:39:09.186Z,22.37
2018-09-06T16:41:37.586Z,25.23
2018-09-06T16:44:05.926Z,26.68
2018-09-06T16:46:34.091Z,22.30
2018-09-06T16:49:02.246Z,21.57
2018-09-06T16:51:30.426Z,23.35
2018-09-06T16:53:58.618Z,22.02
2018-09-06T16:56:26.806Z,17.52
2018-09-06T16:58:55.018Z,21.52
2018-09-06T17:01:23.179Z,22.50
2018-09-06T17:03:52.385Z,17.77
2018-09-06T17:06:20.526Z,20.90
2018-09-06T17:08:48.734Z,18.52
2018-09-06T17:11:16.850Z,19.17
2018-09-06T17:13:45.032Z,21.77
2018-09-06T17:16:13.218Z,18.32
2018-09-06T17:18:41.400Z,20.25
2018-09-06T17:21:10.518Z,18.23
2018-09-06T17:23:41.809Z,19.00
2018-09-06T17:26:10.006Z,26.55
2018-09-06T17:28:38.132Z,16.40
2018-09-06T17:31:06.777Z,16.77
2018-09-06T17:33:34.920Z,21.82
2018-09-06T17:36:03.103Z,19.35
2018-09-06T17:38:31.347Z,24.25
2018-09-06T17:41:00.498Z,21.42
2018-09-06T17:43:28.683Z,19.02
2018-09-06T17:45:57.198Z,14.13
2018-09-06T17:48:25.367Z,15.28
2018-09-06T17:50:53.477Z,14.10
2018-09-06T17:53:21.639Z,12.35
2018-09-06T17:55:49.820Z,11.65
2018-09-06T17:58:18.009Z,12.47
2018-09-06T18:01:54.910Z,11.95
2018-09-06T18:04:23.101Z,16.05
2018-09-06T18:06:51.201Z,12.07
2018-09-06T18:09:19.390Z,16.65
2018-09-06T18:11:47.566Z,13.13
2018-09-06T18:14:15.735Z,13.43
2018-09-06T18:16:43.934Z,14.23
2018-09-06T18:19:12.126Z,14.03
2018-09-06T18:21:40.319Z,12.15
2018-09-06T18:24:08.530Z,14.13
2018-09-06T18:26:36.642Z,12.98
2018-09-06T18:29:04.758Z,13.75
2018-09-06T18:31:32.960Z,13.50
2018-09-06T18:34:01.146Z,14.83
2018-09-06T18:36:29.334Z,15.30
2018-09-06T18:38:57.522Z,17.85
2018-09-06T18:41:25.693Z,14.03
2018-09-06T18:43:53.925Z,14.15
2018-09-06T18:46:22.062Z,15.32
2018-09-06T18:48:50.426Z,13.50
2018-09-06T18:51:18.558Z,14.90
2018-09-06T18:53:46.754Z,13.20
2018-09-06T18:56:14.932Z,13.13
2018-09-06T18:58:43.110Z,12.63
2018-09-06T19:01:12.213Z,14.20
2018-09-06T19:03:40.412Z,16.12
2018-09-06T19:06:08.498Z,14.50
2018-09-06T19:08:36.683Z,15.23
2018-09-06T19:11:04.866Z,14.13
2018-09-06T19:13:33.082Z,13.93
2018-09-06T19:16:01.233Z,14.05
2018-09-06T19:18:29.435Z,17.15
2018-09-06T19:20:57.610Z,14.53
2018-09-06T19:23:25.799Z,14.15
2018-09-06T19:25:54.329Z,14.20
2018-09-06T19:28:22.498Z,14.00
2018-09-06T19:30:50.670Z,15.70
2018-09-06T19:33:18.866Z,15.58
2018-09-06T19:35:47.103Z,14.90
2018-09-06T19:38:15.254Z,19.65
2018-09-06T19:40:43.437Z,21.37
2018-09-06T19:43:11.632Z,24.37
2018-09-06T19:45:39.802Z,20.97
2018-09-06T19:48:08.002Z,24.80
2018-09-06T19:50:36.169Z,23.80
2018-09-06T19:53:04.362Z,20.65
2018-09-06T19:55:32.554Z,18.40
2018-09-06T19:58:00.737Z,16.12
2018-09-06T20:00:28.941Z,17.50
2018-09-06T20:02:57.118Z,18.00
2018-09-06T20:05:25.303Z,21.48
2018-09-06T20:07:53.529Z,19.17
2018-09-06T20:10:21.890Z,19.02
2018-09-06T20:12:50.814Z,17.92
2018-09-06T20:15:19.069Z,22.20
2018-09-06T20:17:47.273Z,21.40
2018-09-06T20:20:15.471Z,19.23
2018-09-06T20:22:43.638Z,20.25
2018-09-06T20:25:11.802Z,20.62
2018-09-06T20:27:39.983Z,18.73
2018-09-06T20:30:08.178Z,18.98
2018-09-06T20:32:36.355Z,20.57
2018-09-06T20:35:04.685Z,20.75
2018-09-06T20:37:32.841Z,24.45
2018-09-06T20:40:01.034Z,19.98
2018-09-06T20:42:29.222Z,21.17
2018-09-06T20:44:57.403Z,21.48
2018-09-06T20:47:25.586Z,22.93
2018-09-06T20:49:53.786Z,23.80
2018-09-06T20:52:21.965Z,21.50
2018-09-06T20:54:50.146Z,19.50
2018-09-06T20:57:18.366Z,18.37
2018-09-06T20:59:46.521Z,19.98
2018-09-06T21:02:20.306Z,22.32
2018-09-06T21:04:48.430Z,20.00
2018-09-06T21:07:16.662Z,22.15
2018-09-06T21:09:44.821Z,21.42
2018-09-06T21:12:12.981Z,22.80
2018-09-06T21:14:41.398Z,25.48
2018-09-06T21:17:09.557Z,22.52
2018-09-06T21:19:38.090Z,28.10
2018-09-06T21:22:06.237Z,32.78
2018-09-06T21:24:34.558Z,48.68
2018-09-06T21:27:02.723Z,46.85
2018-09-06T21:29:30.922Z,47.80
2018-09-06T21:31:59.085Z,56.50
2018-09-06T21:34:27.292Z,55.03
2018-09-06T21:36:55.465Z,53.98
2018-09-06T21:39:23.672Z,56.77
2018-09-06T21:41:51.878Z,54.85
2018-09-06T21:44:20.030Z,58.92
2018-09-06T21:46:48.209Z,57.90
2018-09-06T21:49:16.413Z,58.35
2018-09-06T21:51:44.577Z,52.33
2018-09-06T21:54:12.773Z,56.30
2018-09-06T21:56:40.951Z,55.03
2018-09-06T21:59:09.158Z,52.38
2018-09-06T22:01:37.331Z,53.75
2018-09-06T22:04:07.641Z,49.95
2018-09-06T22:06:36.699Z,51.33
2018-09-06T22:09:08.370Z,46.77
2018-09-06T22:11:36.530Z,46.83
2018-09-06T22:14:04.722Z,52.15
2018-09-06T22:16:32.913Z,45.12
2018-09-06T22:19:01.111Z,47.65
2018-09-06T22:21:29.270Z,48.87
2018-09-06T22:23:57.501Z,47.48
2018-09-06T22:26:25.646Z,45.35
2018-09-06T22:28:53.846Z,43.80
2018-09-06T22:31:22.030Z,47.55
2018-09-06T22:33:50.210Z,47.35
2018-09-06T22:36:18.415Z,45.90
2018-09-06T22:38:46.582Z,49.85
2018-09-06T22:41:14.778Z,48.17
2018-09-06T22:43:42.954Z,43.65
2018-09-06T22:46:11.162Z,47.40
2018-09-06T22:48:39.342Z,45.90
2018-09-06T22:51:07.522Z,50.70
2018-09-06T22:53:35.710Z,49.95
2018-09-06T22:56:04.131Z,50.25
2018-09-06T22:58:32.366Z,51.55
2018-09-06T23:01:00.478Z,45.85
2018-09-06T23:03:34.258Z,45.28
2018-09-06T23:06:02.385Z,49.33
2018-09-06T23:08:30.592Z,52.05
2018-09-06T23:10:58.773Z,47.80
2018-09-06T23:13:26.967Z,49.38
2018-09-06T23:15:55.166Z,53.63
2018-09-06T23:18:23.326Z,52.98
2018-09-06T23:20:51.525Z,47.90
2018-09-06T23:23:19.705Z,48.58
2018-09-06T23:25:47.892Z,47.95
2018-09-06T23:28:16.078Z,37.28
2018-09-06T23:30:45.201Z,28.38
2018-09-06T23:33:13.369Z,26.82
2018-09-06T23:35:44.095Z,19.77
2018-09-06T23:38:13.275Z,19.50
2018-09-06T23:40:45.667Z,23.42
2018-09-06T23:43:13.793Z,24.02
2018-09-06T23:45:41.989Z,25.90
2018-09-06T23:48:10.174Z,36.30
2018-09-06T23:50:38.361Z,39.73
2018-09-06T23:53:06.545Z,41.40
2018-09-06T23:55:34.757Z,52.73
2018-09-06T23:58:02.946Z,51.08
